Time;durP1;ratioP1;P1;durP2;ratioP2;P2;SDS_P1;SDS_P2;PMS_P1;PMS_P2;Temp;Humidity;BMP_temperature;BMP_pressure;BME280_temperature;BME280_humidity;BME280_pressure;Samples;Min_cycle;Max_cycle;Signal;HPM_P1;HPM_P2
2023/09/12 00:02:05;;;;;;;10.73;8.70;;;20.00;99.90;;;;;;5014027;28;20200;-74
2023/09/12 00:04:31;;;;;;;13.38;9.20;;;20.00;99.90;;;;;;5013627;28;20196;-73
2023/09/12 00:06:57;;;;;;;10.77;9.60;;;19.90;99.90;;;;;;5013852;28;20549;-73
2023/09/12 00:09:22;;;;;;;14.37;10.17;;;19.90;99.90;;;;;;5013589;28;20204;-73
2023/09/12 00:11:48;;;;;;;12.60;9.40;;;19.90;99.90;;;;;;5013962;28;20187;-73
2023/09/12 00:14:17;;;;;;;13.15;10.68;;;19.90;99.90;;;;;;5013282;28;20200;-73
2023/09/12 00:16:43;;;;;;;13.23;10.02;;;19.90;99.90;;;;;;5022288;28;20168;-73
2023/09/12 00:19:09;;;;;;;12.48;9.90;;;20.00;99.90;;;;;;5013663;28;20365;-73
2023/09/12 00:21:35;;;;;;;13.20;11.52;;;20.00;99.90;;;;;;5013647;28;20207;-72
2023/09/12 00:24:01;;;;;;;12.60;11.10;;;20.10;99.90;;;;;;5013353;28;20195;-72
2023/09/12 00:26:26;;;;;;;11.45;10.32;;;20.20;99.90;;;;;;5011983;28;20187;-72
2023/09/12 00:28:52;;;;;;;11.93;10.50;;;20.20;99.90;;;;;;5012782;28;20180;-72
2023/09/12 00:31:18;;;;;;;15.68;11.40;;;20.20;99.90;;;;;;5013449;28;20216;-72
2023/09/12 00:33:43;;;;;;;14.13;11.40;;;20.30;99.90;;;;;;5012889;28;20204;-72
2023/09/12 00:36:09;;;;;;;16.90;11.88;;;20.30;99.90;;;;;;5013269;28;20188;-72
2023/09/12 00:38:34;;;;;;;16.95;12.15;;;20.40;99.90;;;;;;5012828;28;20234;-72
2023/09/12 00:41:00;;;;;;;14.45;11.25;;;20.40;99.90;;;;;;5012511;28;20672;-73
2023/09/12 00:43:25;;;;;;;16.40;12.57;;;20.30;99.90;;;;;;5012715;28;20255;-72
2023/09/12 00:45:51;;;;;;;20.27;13.23;;;20.20;99.90;;;;;;5013131;28;20191;-72
2023/09/12 00:48:18;;;;;;;16.30;12.52;;;20.10;99.90;;;;;;5011461;28;20186;-72
2023/09/12 00:50:45;;;;;;;17.50;12.02;;;20.00;99.90;;;;;;5011559;28;20200;-73
2023/09/12 00:53:10;;;;;;;17.63;13.48;;;20.00;99.90;;;;;;5012875;28;20168;-72
2023/09/12 00:55:39;;;;;;;16.02;12.77;;;20.00;99.90;;;;;;5012901;28;20192;-72
2023/09/12 00:58:07;;;;;;;17.77;13.35;;;20.00;99.90;;;;;;5012468;28;20254;-72
2023/09/12 01:00:33;;;;;;;19.52;13.57;;;20.00;99.90;;;;;;5012519;28;20268;-73
2023/09/12 01:02:59;;;;;;;17.95;14.27;;;20.00;99.90;;;;;;5012650;28;20188;-72
2023/09/12 01:05:25;;;;;;;19.38;13.68;;;20.00;99.90;;;;;;5012653;28;20215;-72
2023/09/12 01:07:51;;;;;;;17.77;13.65;;;19.90;99.90;;;;;;5012429;28;20184;-72
2023/09/12 01:10:16;;;;;;;19.48;13.95;;;19.80;99.90;;;;;;5012622;28;20271;-73
2023/09/12 01:12:42;;;;;;;17.08;13.13;;;19.80;99.90;;;;;;5012276;28;20214;-72
2023/09/12 01:15:13;;;;;;;18.17;14.38;;;19.80;99.90;;;;;;5012511;28;20542;-73
2023/09/12 01:17:43;;;;;;;17.17;13.77;;;19.70;99.90;;;;;;5012141;28;20286;-73
2023/09/12 01:20:15;;;;;;;18.90;14.38;;;19.70;99.90;;;;;;5012691;28;20846;-73
2023/09/12 01:23:17;;;;;;;15.63;13.73;;;19.60;99.90;;;;;;5012204;28;20215;-72
2023/09/12 01:26:01;;;;;;;16.67;14.53;;;19.60;99.90;;;;;;5017955;28;20245;-72
2023/09/12 01:28:34;;;;;;;21.45;14.52;;;19.60;99.90;;;;;;5011751;28;20664;-72
2023/09/12 01:31:02;;;;;;;20.52;15.35;;;19.50;99.90;;;;;;5012008;28;20562;-71
2023/09/12 01:33:28;;;;;;;18.80;15.00;;;19.40;99.90;;;;;;5012073;28;20204;-72
2023/09/12 01:35:54;;;;;;;22.13;15.03;;;19.40;99.90;;;;;;5012218;28;20220;-72
2023/09/12 01:38:21;;;;;;;22.58;14.98;;;19.40;99.90;;;;;;5011862;28;20749;-72
2023/09/12 01:40:52;;;;;;;21.05;15.10;;;19.40;99.90;;;;;;5009679;28;20180;-72
2023/09/12 01:43:22;;;;;;;17.08;14.35;;;19.40;99.90;;;;;;5011969;28;20200;-72
2023/09/12 01:45:50;;;;;;;18.83;14.23;;;19.40;99.90;;;;;;5011683;28;20196;-72
2023/09/12 01:48:20;;;;;;;18.73;14.90;;;19.50;99.90;;;;;;5011743;28;20579;-72
2023/09/12 01:50:46;;;;;;;17.20;13.82;;;19.50;99.90;;;;;;5011919;28;20223;-72
2023/09/12 01:53:14;;;;;;;18.37;13.47;;;19.60;99.90;;;;;;5011860;28;20176;-72
2023/09/12 01:55:41;;;;;;;19.75;14.52;;;19.60;99.90;;;;;;5011388;28;20216;-72
2023/09/12 01:58:08;;;;;;;19.17;13.33;;;19.50;99.90;;;;;;5011606;28;20180;-72
2023/09/12 02:00:34;;;;;;;16.03;13.23;;;19.60;99.90;;;;;;5011404;28;20176;-72
2023/09/12 02:03:03;;;;;;;17.43;14.20;;;19.70;99.90;;;;;;5010422;28;20175;-72
2023/09/12 02:05:29;;;;;;;15.93;13.52;;;19.70;99.90;;;;;;5011820;28;20196;-72
2023/09/12 02:07:54;;;;;;;17.23;13.40;;;19.60;99.90;;;;;;5011355;28;20267;-72
2023/09/12 02:10:20;;;;;;;20.20;14.77;;;19.50;99.90;;;;;;5011628;28;20354;-72
2023/09/12 02:12:45;;;;;;;20.77;14.05;;;19.50;99.90;;;;;;5009813;28;20503;-72
2023/09/12 02:15:12;;;;;;;20.67;14.77;;;19.50;99.90;;;;;;5010244;28;20250;-72
2023/09/12 02:17:38;;;;;;;21.17;15.43;;;19.40;99.90;;;;;;5011428;28;20192;-72
2023/09/12 02:20:06;;;;;;;20.90;14.82;;;19.30;99.90;;;;;;5009985;28;20186;-73
2023/09/12 02:22:32;;;;;;;20.92;15.98;;;19.30;99.90;;;;;;5009963;28;20214;-72
2023/09/12 02:24:58;;;;;;;22.30;16.02;;;19.30;99.90;;;;;;5011646;28;20212;-72
2023/09/12 02:27:23;;;;;;;28.05;17.05;;;19.40;99.90;;;;;;5011592;28;20212;-72
2023/09/12 02:29:49;;;;;;;19.30;15.57;;;19.40;99.90;;;;;;5011227;28;20238;-71
2023/09/12 02:32:14;;;;;;;21.65;15.85;;;19.40;99.90;;;;;;5010377;28;20180;-71
2023/09/12 02:34:40;;;;;;;24.90;18.17;;;19.50;99.90;;;;;;5011050;28;20207;-71
2023/09/12 02:37:05;;;;;;;20.63;16.80;;;19.50;99.90;;;;;;5011584;28;20188;-70
2023/09/12 02:39:31;;;;;;;22.80;17.48;;;19.60;99.90;;;;;;5011168;28;20195;-73
2023/09/12 02:41:56;;;;;;;23.92;17.80;;;19.60;99.90;;;;;;5010974;28;20572;-71
2023/09/12 02:44:22;;;;;;;22.58;17.00;;;19.70;99.90;;;;;;5011284;28;20207;-71
2023/09/12 02:46:48;;;;;;;21.10;16.67;;;19.70;99.90;;;;;;5011103;28;20601;-70
2023/09/12 02:49:14;;;;;;;20.95;15.52;;;19.80;99.90;;;;;;5011427;28;20168;-70
2023/09/12 02:51:39;;;;;;;25.85;16.30;;;19.80;99.90;;;;;;5012510;28;20226;-72
2023/09/12 02:54:06;;;;;;;22.15;16.35;;;19.90;99.90;;;;;;5015334;28;20200;-71
2023/09/12 02:56:31;;;;;;;23.80;16.77;;;19.90;99.90;;;;;;5013821;28;20247;-71
2023/09/12 02:58:57;;;;;;;21.93;16.13;;;19.90;99.90;;;;;;5015040;28;20655;-70
2023/09/12 03:01:25;;;;;;;24.20;16.98;;;19.90;99.90;;;;;;5015027;28;20290;-71
2023/09/12 03:03:51;;;;;;;25.60;17.33;;;19.80;99.90;;;;;;5013796;28;20664;-71
2023/09/12 03:06:18;;;;;;;25.30;18.10;;;19.80;99.90;;;;;;5013998;28;20215;-71
2023/09/12 03:08:44;;;;;;;21.73;16.42;;;19.80;99.90;;;;;;5014670;28;20176;-71
2023/09/12 03:11:10;;;;;;;22.67;17.05;;;19.70;99.90;;;;;;5015095;28;20184;-71
2023/09/12 03:13:40;;;;;;;27.38;17.02;;;19.80;99.90;;;;;;5014515;28;20687;-71
2023/09/12 03:16:14;;;;;;;25.77;17.80;;;19.80;99.90;;;;;;5013972;28;20660;-71
2023/09/12 03:18:40;;;;;;;26.55;18.67;;;19.80;99.90;;;;;;5014974;28;20190;-71
2023/09/12 03:21:06;;;;;;;23.67;18.02;;;19.80;99.90;;;;;;5013590;28;20208;-71
2023/09/12 03:23:32;;;;;;;24.02;18.08;;;19.80;99.90;;;;;;5014665;28;20723;-71
2023/09/12 03:26:15;;;;;;;23.77;17.52;;;19.90;99.90;;;;;;5014833;28;20266;-71
2023/09/12 03:28:41;;;;;;;21.48;16.83;;;19.90;99.90;;;;;;5013973;28;20653;-70
2023/09/12 03:31:11;;;;;;;25.35;17.67;;;19.90;99.90;;;;;;5014470;28;20179;-71
2023/09/12 03:33:38;;;;;;;28.40;18.60;;;20.00;99.90;;;;;;5014411;28;20292;-71
2023/09/12 03:36:04;;;;;;;23.13;17.85;;;20.00;99.90;;;;;;5014362;28;20682;-71
2023/09/12 03:38:30;;;;;;;24.98;17.38;;;20.10;99.90;;;;;;5014185;28;20491;-70
2023/09/12 03:40:55;;;;;;;22.88;17.17;;;20.20;99.90;;;;;;5014422;28;20230;-70
2023/09/12 03:43:21;;;;;;;24.23;16.85;;;20.20;99.90;;;;;;5014455;28;20200;-71
2023/09/12 03:45:46;;;;;;;18.50;15.50;;;20.20;99.90;;;;;;5014160;28;20606;-70
2023/09/12 03:48:12;;;;;;;19.35;15.52;;;20.30;99.90;;;;;;5014140;28;20195;-71
2023/09/12 03:50:37;;;;;;;20.98;15.90;;;20.30;99.90;;;;;;5014040;28;20196;-70
2023/09/12 03:53:03;;;;;;;20.77;15.73;;;20.30;99.90;;;;;;5013942;28;20184;-71
2023/09/12 03:55:29;;;;;;;21.75;15.68;;;20.40;99.90;;;;;;5014296;28;20212;-71
2023/09/12 03:57:54;;;;;;;17.20;15.40;;;20.40;99.90;;;;;;5013893;28;20188;-71
2023/09/12 04:00:20;;;;;;;18.98;15.38;;;20.50;99.90;;;;;;5013737;28;20549;-71
2023/09/12 04:02:46;;;;;;;19.17;14.57;;;20.50;99.90;;;;;;5013427;28;20295;-71
2023/09/12 04:05:11;;;;;;;18.85;14.27;;;20.50;99.90;;;;;;5014119;28;20218;-70
2023/09/12 04:07:37;;;;;;;18.30;13.98;;;20.60;99.90;;;;;;5013880;28;20184;-71
2023/09/12 04:10:03;;;;;;;18.50;14.55;;;20.60;99.90;;;;;;5013848;28;20667;-71
2023/09/12 04:12:28;;;;;;;18.75;14.63;;;20.60;99.90;;;;;;5013753;28;20570;-71
2023/09/12 04:14:57;;;;;;;15.15;13.23;;;20.60;99.90;;;;;;5013526;28;20231;-71
2023/09/12 04:17:22;;;;;;;20.77;14.13;;;20.70;99.90;;;;;;5012659;28;20188;-71
2023/09/12 04:19:48;;;;;;;16.42;13.88;;;20.70;99.90;;;;;;5013565;28;20280;-71
2023/09/12 04:22:14;;;;;;;15.25;13.38;;;20.70;99.90;;;;;;5013927;28;20251;-71
2023/09/12 04:24:39;;;;;;;17.73;14.57;;;20.70;99.90;;;;;;5013432;28;20192;-71
2023/09/12 04:27:05;;;;;;;17.10;12.90;;;20.60;99.90;;;;;;5013884;28;20176;-71
2023/09/12 04:29:34;;;;;;;15.38;13.23;;;20.60;99.90;;;;;;5013070;28;20176;-71
2023/09/12 04:31:59;;;;;;;15.82;13.35;;;20.60;99.90;;;;;;5012269;28;20560;-73
2023/09/12 04:34:25;;;;;;;17.65;13.30;;;20.70;99.90;;;;;;5013412;28;20247;-70
2023/09/12 04:36:52;;;;;;;19.52;13.75;;;20.70;99.90;;;;;;5013263;28;20210;-71
2023/09/12 04:39:18;;;;;;;20.42;13.50;;;20.70;99.90;;;;;;5012250;28;20211;-72
2023/09/12 04:41:43;;;;;;;17.75;14.82;;;20.50;99.90;;;;;;5012700;28;20757;-72
2023/09/12 04:44:09;;;;;;;20.55;14.02;;;20.20;99.90;;;;;;5012858;28;20203;-72
2023/09/12 04:46:35;;;;;;;20.27;14.07;;;20.00;99.90;;;;;;5011510;28;20267;-71
2023/09/12 04:49:00;;;;;;;18.50;13.65;;;19.80;99.90;;;;;;5012933;28;20258;-72
2023/09/12 04:51:27;;;;;;;17.27;15.40;;;19.70;99.90;;;;;;5013003;28;20199;-72
2023/09/12 04:53:52;;;;;;;18.47;14.63;;;19.60;99.90;;;;;;5013249;28;20214;-72
2023/09/12 04:56:18;;;;;;;18.03;15.13;;;19.50;99.90;;;;;;5013006;28;20567;-74
2023/09/12 04:58:44;;;;;;;18.60;14.70;;;19.50;99.90;;;;;;5012209;28;20259;-72
2023/09/12 05:01:09;;;;;;;19.25;15.05;;;19.40;99.90;;;;;;5012834;28;20210;-72
2023/09/12 05:03:35;;;;;;;20.60;16.23;;;19.40;99.90;;;;;;5012656;28;20567;-72
2023/09/12 05:06:01;;;;;;;28.27;19.53;;;19.30;99.90;;;;;;5012785;28;20176;-72
2023/09/12 05:08:27;;;;;;;31.43;20.97;;;19.30;99.90;;;;;;5012392;28;20176;-72
2023/09/12 05:10:52;;;;;;;32.73;22.83;;;19.20;99.90;;;;;;5012629;28;20639;-72
2023/09/12 05:13:18;;;;;;;36.05;24.05;;;19.20;99.90;;;;;;5012425;28;20206;-72
2023/09/12 05:15:44;;;;;;;34.90;22.65;;;19.10;99.90;;;;;;5011697;28;20187;-72
2023/09/12 05:18:10;;;;;;;34.00;22.70;;;19.10;99.90;;;;;;5012345;28;20705;-72
2023/09/12 05:20:36;;;;;;;33.33;23.03;;;19.10;99.90;;;;;;5012444;28;20451;-72
2023/09/12 05:23:02;;;;;;;35.87;23.90;;;19.00;99.90;;;;;;5012356;28;20204;-72
2023/09/12 05:25:28;;;;;;;38.13;24.90;;;19.10;99.90;;;;;;5012469;28;20180;-72
2023/09/12 05:27:54;;;;;;;40.77;25.27;;;19.10;99.90;;;;;;5012338;28;20183;-72
2023/09/12 05:30:19;;;;;;;39.50;26.03;;;19.10;99.90;;;;;;5010918;28;20271;-72
2023/09/12 05:32:45;;;;;;;40.40;27.33;;;19.20;99.90;;;;;;5012115;28;20481;-73
2023/09/12 05:35:11;;;;;;;41.93;27.17;;;19.10;99.90;;;;;;5020442;28;20256;-72
2023/09/12 05:37:36;;;;;;;46.17;28.30;;;19.20;99.90;;;;;;5012163;28;20604;-73
2023/09/12 05:40:03;;;;;;;40.90;27.50;;;19.10;99.90;;;;;;5011834;28;20180;-73
2023/09/12 05:42:29;;;;;;;47.20;28.03;;;19.10;99.90;;;;;;5010622;28;20208;-72
2023/09/12 05:44:55;;;;;;;46.43;29.30;;;19.10;99.90;;;;;;5011775;28;20196;-73
2023/09/12 05:47:21;;;;;;;45.80;29.00;;;19.10;99.90;;;;;;5012105;28;20179;-72
2023/09/12 05:49:47;;;;;;;47.97;29.37;;;19.10;99.90;;;;;;5011749;28;20334;-72
2023/09/12 05:52:13;;;;;;;46.93;29.17;;;19.10;99.90;;;;;;5011583;28;20524;-73
2023/09/12 05:54:40;;;;;;;40.87;27.33;;;19.20;99.90;;;;;;5010130;28;20214;-72
2023/09/12 05:57:06;;;;;;;46.13;30.00;;;19.30;99.90;;;;;;5011676;28;20667;-72
2023/09/12 05:59:32;;;;;;;43.50;29.50;;;19.40;99.90;;;;;;5009957;28;20199;-72
2023/09/12 06:01:58;;;;;;;52.00;29.90;;;19.40;99.90;;;;;;5011318;28;20590;-72
2023/09/12 06:04:24;;;;;;;46.47;28.73;;;19.60;99.90;;;;;;5011681;28;20192;-71
2023/09/12 06:06:49;;;;;;;44.45;27.67;;;19.80;99.90;;;;;;5011358;28;20185;-72
2023/09/12 06:09:15;;;;;;;45.17;28.05;;;19.80;99.90;;;;;;5011401;28;20198;-72
2023/09/12 06:11:40;;;;;;;38.42;26.45;;;19.90;99.90;;;;;;5011756;28;20176;-72
2023/09/12 06:14:06;;;;;;;41.97;27.77;;;19.90;99.90;;;;;;5011624;28;20274;-72
2023/09/12 06:16:32;;;;;;;41.33;27.23;;;20.00;99.90;;;;;;5011395;28;20215;-72
2023/09/12 06:18:57;;;;;;;45.55;26.02;;;20.00;99.90;;;;;;5010159;28;20192;-72
2023/09/12 06:21:23;;;;;;;39.38;24.50;;;20.20;99.90;;;;;;5011553;28;20510;-72
2023/09/12 06:24:09;;;;;;;41.60;25.90;;;20.40;99.90;;;;;;5011582;28;20598;-72
2023/09/12 06:26:34;;;;;;;35.20;24.75;;;20.60;99.90;;;;;;5009819;28;20575;-72
2023/09/12 06:29:00;;;;;;;31.08;22.42;;;20.80;99.90;;;;;;5010916;28;20172;-72
2023/09/12 06:31:25;;;;;;;28.13;20.08;;;21.00;99.90;;;;;;5011239;28;20636;-72
2023/09/12 06:33:51;;;;;;;25.02;19.35;;;21.20;99.90;;;;;;5010993;28;20219;-72
2023/09/12 06:36:17;;;;;;;25.23;18.90;;;21.40;99.90;;;;;;5011361;28;20188;-72
2023/09/12 06:38:42;;;;;;;22.42;18.20;;;21.50;99.90;;;;;;5010505;28;20697;-72
2023/09/12 06:41:08;;;;;;;21.08;16.38;;;21.60;99.90;;;;;;5009846;28;20204;-72
2023/09/12 06:43:33;;;;;;;18.40;15.73;;;21.70;99.90;;;;;;5011001;28;20198;-71
2023/09/12 06:45:59;;;;;;;19.30;15.70;;;21.70;99.90;;;;;;5011181;28;20588;-72
2023/09/12 06:48:25;;;;;;;21.00;16.13;;;21.90;99.90;;;;;;5010557;28;20172;-72
2023/09/12 06:50:50;;;;;;;17.83;15.88;;;22.00;99.90;;;;;;5010909;28;20238;-72
2023/09/12 06:53:16;;;;;;;16.77;14.32;;;22.20;99.90;;;;;;5010857;28;20204;-72
2023/09/12 06:55:41;;;;;;;16.65;14.32;;;22.30;99.90;;;;;;5010092;28;20188;-72
2023/09/12 06:58:07;;;;;;;11.48;10.35;;;22.40;99.90;;;;;;5010738;28;20256;-72
2023/09/12 07:00:33;;;;;;;13.43;11.02;;;22.60;99.90;;;;;;5011256;28;20204;-72
2023/09/12 07:02:59;;;;;;;12.18;10.23;;;22.50;99.90;;;;;;5009858;28;20232;-71
2023/09/12 07:05:25;;;;;;;10.27;9.27;;;22.70;99.90;;;;;;5009693;28;20248;-71
2023/09/12 07:07:52;;;;;;;11.20;9.20;;;22.60;99.90;;;;;;5010740;28;20164;-71
2023/09/12 07:10:17;;;;;;;12.85;8.82;;;22.70;99.90;;;;;;5010883;28;20271;-71
2023/09/12 07:12:43;;;;;;;9.55;8.63;;;22.70;99.90;;;;;;5010244;28;20619;-71
2023/09/12 07:15:09;;;;;;;8.50;7.70;;;22.90;99.90;;;;;;5010689;28;20287;-71
2023/09/12 07:17:35;;;;;;;11.95;7.70;;;22.90;99.90;;;;;;5010647;28;20187;-71
2023/09/12 07:20:00;;;;;;;7.13;6.43;;;23.00;99.90;;;;;;5009174;28;20180;-71
2023/09/12 07:22:26;;;;;;;6.80;6.20;;;22.90;99.90;;;;;;5018758;28;20200;-71
2023/09/12 07:24:52;;;;;;;6.22;5.63;;;23.00;99.90;;;;;;5010655;28;20283;-72
2023/09/12 07:27:17;;;;;;;6.25;5.68;;;23.30;99.90;;;;;;5010866;28;20257;-71
2023/09/12 07:29:43;;;;;;;6.53;5.93;;;23.60;99.90;;;;;;5010006;28;20270;-72
2023/09/12 07:32:08;;;;;;;7.60;5.50;;;24.20;99.90;;;;;;5011010;28;20195;-71
2023/09/12 07:34:34;;;;;;;5.72;5.13;;;24.50;99.90;;;;;;5015692;28;20563;-73
2023/09/12 07:37:01;;;;;;;6.45;5.72;;;24.90;99.90;;;;;;5013117;28;20173;-72
2023/09/12 07:39:26;;;;;;;6.68;5.68;;;25.00;99.90;;;;;;5014114;28;20188;-72
2023/09/12 07:41:52;;;;;;;6.82;6.22;;;25.20;99.90;;;;;;5014206;28;20603;-72
2023/09/12 07:44:17;;;;;;;7.32;6.63;;;25.70;99.90;;;;;;5011700;28;20211;-72
2023/09/12 07:46:43;;;;;;;7.47;5.95;;;26.30;99.90;;;;;;5013989;28;20168;-72
2023/09/12 07:49:09;;;;;;;7.53;6.07;;;26.80;81.30;;;;;;5013674;28;20494;-72
2023/09/12 07:51:35;;;;;;;7.60;5.90;;;27.40;1.00;;;;;;5013961;28;20618;-72
2023/09/12 07:54:01;;;;;;;9.07;5.80;;;27.90;99.90;;;;;;5014053;28;20223;-72
2023/09/12 07:56:27;;;;;;;5.95;4.97;;;28.10;99.90;;;;;;5022217;28;20673;-73
2023/09/12 07:58:53;;;;;;;5.40;4.85;;;28.30;99.90;;;;;;5013692;28;20259;-72
2023/09/12 08:01:18;;;;;;;5.57;5.07;;;28.60;1.00;;;;;;5013991;28;20282;-73
2023/09/12 08:03:44;;;;;;;6.13;5.57;;;28.70;1.00;;;;;;5012305;28;20204;-73
2023/09/12 08:06:10;;;;;;;7.50;4.70;;;29.00;63.90;;;;;;5014808;28;20176;-73
2023/09/12 08:08:35;;;;;;;4.00;3.70;;;29.30;1.00;;;;;;5020715;28;20430;-73
2023/09/12 08:11:01;;;;;;;4.35;3.78;;;29.50;1.00;;;;;;5012627;28;20176;-72
2023/09/12 08:13:28;;;;;;;4.20;3.70;;;29.60;1.00;;;;;;5013168;28;20200;-73
2023/09/12 08:15:55;;;;;;;3.78;3.38;;;29.90;1.00;;;;;;5013780;28;20206;-73
2023/09/12 08:18:20;;;;;;;4.30;3.75;;;29.70;1.00;;;;;;5013436;28;20648;-73
2023/09/12 08:20:46;;;;;;;4.85;3.50;;;29.80;1.00;;;;;;5012029;28;20223;-73
2023/09/12 08:23:12;;;;;;;3.70;3.40;;;29.50;1.00;;;;;;5013505;28;20172;-73
2023/09/12 08:25:38;;;;;;;3.80;3.42;;;29.50;1.00;;;;;;5013532;28;20173;-73
2023/09/12 08:28:04;;;;;;;3.80;3.50;;;29.50;1.00;;;;;;5011658;28;20188;-73
2023/09/12 08:30:30;;;;;;;8.43;3.80;;;29.40;1.00;;;;;;5021480;28;20173;-73
2023/09/12 08:32:56;;;;;;;4.65;4.20;;;29.40;1.00;;;;;;5013238;28;20528;-73
2023/09/12 08:35:21;;;;;;;7.38;4.47;;;29.20;1.00;;;;;;5013355;28;20172;-71
2023/09/12 08:37:47;;;;;;;4.57;4.00;;;29.40;1.00;;;;;;5011831;28;20176;-75
2023/09/12 08:40:13;;;;;;;5.13;4.30;;;29.20;1.00;;;;;;5011529;28;20176;-72
2023/09/12 08:42:41;;;;;;;4.53;3.97;;;29.30;1.00;;;;;;5011682;28;20204;-72
2023/09/12 08:45:15;;;;;;;5.50;4.35;;;29.30;1.00;;;;;;5013001;28;20196;-72
2023/09/12 08:47:42;;;;;;;5.28;4.53;;;29.40;1.00;;;;;;5013125;28;20202;-73
2023/09/12 08:50:12;;;;;;;4.72;4.32;;;29.50;1.00;;;;;;5010210;28;20187;-73
2023/09/12 08:52:38;;;;;;;4.65;3.70;;;29.50;1.00;;;;;;5012915;28;20184;-72
2023/09/12 08:55:05;;;;;;;6.30;5.13;;;29.70;1.00;;;;;;5012500;28;20204;-72
2023/09/12 08:57:35;;;;;;;7.55;6.10;;;29.70;1.00;;;;;;5012804;28;20180;-72
2023/09/12 09:00:22;;;;;;;7.10;6.45;;;29.00;1.00;;;;;;5012773;28;20183;-73
2023/09/12 09:02:48;;;;;;;6.13;5.55;;;28.50;1.00;;;;;;5012515;28;20292;-73
2023/09/12 09:05:16;;;;;;;7.35;5.55;;;28.30;1.00;;;;;;5012634;28;20199;-73
2023/09/12 09:07:42;;;;;;;7.45;5.72;;;28.00;1.00;;;;;;5012354;28;20184;-73
2023/09/12 09:10:13;;;;;;;5.82;4.97;;;27.90;1.00;;;;;;5012535;28;20191;-72
2023/09/12 09:12:40;;;;;;;6.05;4.40;;;27.80;1.00;;;;;;5012383;28;20172;-73
2023/09/12 09:15:26;;;;;;;4.70;4.10;;;27.50;1.00;;;;;;5012528;28;20307;-73
2023/09/12 09:17:56;;;;;;;7.25;4.47;;;27.40;1.00;;;;;;5012395;28;20673;-73
2023/09/12 09:20:30;;;;;;;5.30;4.40;;;27.30;1.00;;;;;;5012537;28;20176;-72
2023/09/12 09:23:06;;;;;;;4.40;3.92;;;27.40;1.00;;;;;;5011850;28;20211;-73
2023/09/12 09:25:33;;;;;;;3.55;3.20;;;27.70;1.00;;;;;;5012147;28;20180;-73
2023/09/12 09:28:05;;;;;;;4.60;3.70;;;27.90;1.00;;;;;;5012118;28;20191;-73
2023/09/12 09:30:41;;;;;;;4.15;3.70;;;28.00;1.00;;;;;;5012691;28;20168;-73
2023/09/12 09:33:07;;;;;;;6.50;3.50;;;28.00;1.00;;;;;;5012444;28;20176;-73
2023/09/12 09:35:32;;;;;;;8.05;3.38;;;28.20;1.00;;;;;;5003897;28;20230;-74
2023/09/12 09:37:59;;;;;;;5.90;3.75;;;28.40;1.00;;;;;;5010741;28;20596;-74
2023/09/12 09:40:24;;;;;;;4.43;4.03;;;28.80;1.00;;;;;;5012156;28;20176;-71
2023/09/12 09:42:54;;;;;;;4.88;4.40;;;28.60;1.00;;;;;;5011789;28;20208;-73
2023/09/12 09:45:20;;;;;;;4.50;3.60;;;28.50;1.00;;;;;;5011635;28;20176;-73
2023/09/12 09:47:45;;;;;;;4.75;3.40;;;28.10;1.00;;;;;;5011723;28;20545;-73
2023/09/12 09:50:15;;;;;;;4.72;2.53;;;27.90;1.00;;;;;;5011377;28;20223;-73
2023/09/12 09:52:42;;;;;;;2.80;2.60;;;27.80;1.00;;;;;;5010582;28;20179;-73
2023/09/12 09:55:08;;;;;;;2.95;2.65;;;27.60;1.00;;;;;;5011776;28;20694;-73
2023/09/12 09:57:39;;;;;;;2.70;2.50;;;27.50;1.00;;;;;;5011552;28;20184;-74
2023/09/12 10:00:08;;;;;;;2.70;2.50;;;27.50;1.00;;;;;;5010005;28;20180;-73
2023/09/12 10:02:35;;;;;;;3.33;3.08;;;27.60;1.00;;;;;;5010212;28;20283;-73
2023/09/12 10:05:05;;;;;;;2.83;2.60;;;27.60;1.00;;;;;;5011624;28;20198;-73
2023/09/12 10:07:36;;;;;;;2.50;2.30;;;27.80;1.00;;;;;;5010426;28;20169;-73
2023/09/12 10:10:03;;;;;;;2.30;2.10;;;28.00;1.00;;;;;;5011565;28;20204;-73
2023/09/12 10:12:31;;;;;;;2.45;2.25;;;27.90;1.00;;;;;;5011522;28;20176;-73
2023/09/12 10:15:00;;;;;;;3.80;2.70;;;28.00;1.00;;;;;;5011470;28;20196;-71
2023/09/12 10:17:36;;;;;;;2.85;2.63;;;28.10;1.00;;;;;;5011112;28;20184;-73
2023/09/12 10:20:09;;;;;;;2.63;2.22;;;28.30;1.00;;;;;;5011503;28;20172;-73
2023/09/12 10:22:43;;;;;;;2.92;2.72;;;28.50;1.00;;;;;;5010367;28;20291;-74
2023/09/12 10:25:11;;;;;;;3.55;2.88;;;28.40;1.00;;;;;;5009495;28;20222;-73
2023/09/12 10:27:37;;;;;;;3.03;2.63;;;28.40;1.00;;;;;;5009554;28;20204;-74
2023/09/12 10:30:04;;;;;;;2.70;2.50;;;28.50;1.00;;;;;;5009680;28;20644;-74
2023/09/12 10:32:31;;;;;;;3.92;3.38;;;28.50;1.00;;;;;;5009834;28;20184;-73
2023/09/12 10:34:59;;;;;;;4.85;3.13;;;28.70;1.00;;;;;;5011156;28;20294;-73
2023/09/12 10:37:27;;;;;;;4.50;3.60;;;28.70;1.00;;;;;;5010898;28;20180;-74
2023/09/12 10:39:57;;;;;;;4.93;3.72;;;28.70;1.00;;;;;;5011286;28;20191;-74
2023/09/12 10:42:25;;;;;;;5.25;3.78;;;28.70;1.00;;;;;;5011103;28;20258;-74
2023/09/12 10:44:52;;;;;;;5.63;3.72;;;28.80;1.00;;;;;;5010572;28;20533;-73
2023/09/12 10:47:18;;;;;;;4.40;4.00;;;28.80;1.00;;;;;;5010770;28;20207;-72
2023/09/12 10:49:44;;;;;;;4.93;4.40;;;29.00;1.00;;;;;;5010978;28;20180;-74
2023/09/12 10:52:11;;;;;;;6.57;3.90;;;28.70;1.00;;;;;;5009317;28;20188;-73
2023/09/12 10:54:40;;;;;;;3.72;3.42;;;28.70;1.00;;;;;;5010522;28;20200;-74
2023/09/12 10:57:13;;;;;;;6.15;4.25;;;28.90;1.00;;;;;;5009028;28;20278;-74
2023/09/12 10:59:58;;;;;;;5.93;4.18;;;29.10;1.00;;;;;;5010479;28;20263;-73
2023/09/12 11:02:29;;;;;;;4.43;3.83;;;29.00;1.00;;;;;;5008404;28;20265;-73
2023/09/12 11:04:55;;;;;;;4.78;4.32;;;29.00;1.00;;;;;;5010786;28;20223;-73
2023/09/12 11:07:35;;;;;;;14.63;4.30;;;28.90;1.00;;;;;;5010806;28;20219;-74
2023/09/12 11:10:18;;;;;;;6.05;4.68;;;29.10;1.00;;;;;;5010690;28;20184;-73
2023/09/12 11:12:45;;;;;;;7.35;3.75;;;29.20;1.00;;;;;;4998587;28;20532;-73
2023/09/12 11:15:11;;;;;;;7.50;4.30;;;29.20;1.00;;;;;;5012519;28;20196;-74
2023/09/12 11:17:38;;;;;;;5.75;3.97;;;29.10;1.00;;;;;;5014119;28;20263;-74
2023/09/12 11:20:10;;;;;;;4.45;4.05;;;29.10;1.00;;;;;;5014460;28;20744;-75
2023/09/12 11:22:39;;;;;;;4.07;3.63;;;29.10;1.00;;;;;;5012743;28;20208;-74
2023/09/12 11:25:15;;;;;;;5.50;4.50;;;29.10;1.00;;;;;;5013574;28;20200;-73
2023/09/12 11:27:53;;;;;;;4.88;4.40;;;29.10;1.00;;;;;;5006366;28;20231;-73
2023/09/12 11:30:19;;;;;;;7.60;4.35;;;29.20;1.00;;;;;;5013014;28;20266;-73
2023/09/12 11:32:50;;;;;;;11.02;4.60;;;29.20;1.00;;;;;;5014216;28;20270;-73
2023/09/12 11:35:22;;;;;;;4.10;3.75;;;29.20;1.00;;;;;;5012960;28;20204;-73
2023/09/12 11:37:58;;;;;;;5.88;4.15;;;29.30;1.00;;;;;;5013821;28;20593;-73
2023/09/12 11:40:33;;;;;;;4.68;4.18;;;29.60;1.00;;;;;;5014204;28;20267;-73
2023/09/12 11:42:59;;;;;;;5.40;4.57;;;29.60;1.00;;;;;;5013733;28;20568;-73
2023/09/12 11:45:25;;;;;;;8.52;4.35;;;29.40;1.00;;;;;;5014069;28;20184;-73
2023/09/12 11:47:51;;;;;;;5.88;4.60;;;29.20;1.00;;;;;;5014092;28;20191;-73
2023/09/12 11:50:35;;;;;;;4.78;4.32;;;29.30;1.00;;;;;;5014218;28;20203;-72
2023/09/12 11:53:05;;;;;;;5.28;4.63;;;29.40;1.00;;;;;;5012882;28;20262;-72
2023/09/12 11:55:45;;;;;;;4.57;4.05;;;29.60;1.00;;;;;;5014210;28;20238;-72
2023/09/12 11:58:11;;;;;;;5.13;4.32;;;29.70;1.00;;;;;;5013851;28;20184;-72
2023/09/12 12:00:37;;;;;;;5.78;4.72;;;29.70;1.00;;;;;;5021882;28;20191;-72
2023/09/12 12:03:04;;;;;;;4.90;4.43;;;29.80;1.00;;;;;;5019299;28;20211;-73
2023/09/12 12:05:30;;;;;;;5.28;4.68;;;29.60;1.00;;;;;;5012241;28;20279;-71
2023/09/12 12:07:58;;;;;;;4.97;4.47;;;29.80;1.00;;;;;;5013793;28;20172;-71
2023/09/12 12:10:24;;;;;;;7.82;5.00;;;30.00;1.00;;;;;;5013764;28;20183;-72
2023/09/12 12:12:53;;;;;;;7.40;5.20;;;30.30;1.00;;;;;;5012447;28;20551;-72
2023/09/12 12:15:18;;;;;;;5.75;4.63;;;30.60;1.00;;;;;;5012225;28;20211;-72
2023/09/12 12:17:44;;;;;;;5.57;4.90;;;30.70;1.00;;;;;;5013509;28;20554;-72
2023/09/12 12:20:11;;;;;;;6.25;5.65;;;30.70;1.00;;;;;;5013449;28;20188;-70
2023/09/12 12:22:40;;;;;;;10.75;6.90;;;30.60;1.00;;;;;;5015948;28;20208;-72
2023/09/12 12:25:11;;;;;;;5.88;5.28;;;30.50;1.00;;;;;;5021231;28;20219;-72
2023/09/12 12:27:40;;;;;;;5.63;5.03;;;30.50;1.00;;;;;;5013259;28;20184;-73
2023/09/12 12:30:13;;;;;;;7.57;4.80;;;30.60;1.00;;;;;;5013258;28;20195;-71
2023/09/12 12:32:42;;;;;;;5.90;4.85;;;30.50;1.00;;;;;;5013225;28;20183;-72
2023/09/12 12:35:09;;;;;;;6.78;4.70;;;30.10;1.00;;;;;;5011669;28;20200;-72
2023/09/12 12:37:36;;;;;;;8.25;5.07;;;29.80;1.00;;;;;;5013143;28;20194;-72
2023/09/12 12:40:05;;;;;;;5.60;5.10;;;29.80;1.00;;;;;;5013176;28;20667;-71